sensor_id;sensor_type;location;lat;lon;timestamp;temperature;humidity
22319;DHT22;11327;52.334;9.506;2023-05-10T00:01:52;14.40;99.90
22319;DHT22;11327;52.334;9.506;2023-05-10T00:05:13;14.40;99.90
22319;DHT22;11327;52.334;9.506;2023-05-10T00:08:34;14.40;99.90
22319;DHT22;11327;52.334;9.506;2023-05-10T00:11:54;14.30;99.90
22319;DHT22;11327;52.334;9.506;2023-05-10T00:15:15;14.40;99.90
22319;DHT22;11327;52.334;9.506;2023-05-10T00:18:36;14.40;99.90
22319;DHT22;11327;52.334;9.506;2023-05-10T00:21:56;14.40;99.90
22319;DHT22;11327;52.334;9.506;2023-05-10T00:25:17;14.40;99.90
22319;DHT22;11327;52.334;9.506;2023-05-10T00:28:38;14.40;99.90
22319;DHT22;11327;52.334;9.506;2023-05-10T00:31:59;14.40;99.90
22319;DHT22;11327;52.334;9.506;2023-05-10T00:35:19;14.30;99.90
22319;DHT22;11327;52.334;9.506;2023-05-10T00:38:41;14.30;99.90
22319;DHT22;11327;52.334;9.506;2023-05-10T00:42:02;14.20;99.90
22319;DHT22;11327;52.334;9.506;2023-05-10T00:45:24;14.20;99.90
22319;DHT22;11327;52.334;9.506;2023-05-10T00:48:45;14.20;99.90
22319;DHT22;11327;52.334;9.506;2023-05-10T00:52:06;14.30;99.90
22319;DHT22;11327;52.334;9.506;2023-05-10T00:55:27;14.20;99.90
22319;DHT22;11327;52.334;9.506;2023-05-10T00:58:48;14.10;99.90
22319;DHT22;11327;52.334;9.506;2023-05-10T01:02:08;14.10;99.90
22319;DHT22;11327;52.334;9.506;2023-05-10T01:05:29;14.10;99.90
22319;DHT22;11327;52.334;9.506;2023-05-10T01:08:50;14.00;99.90
22319;DHT22;11327;52.334;9.506;2023-05-10T01:12:11;13.90;99.90
22319;DHT22;11327;52.334;9.506;2023-05-10T01:15:32;13.90;99.90
22319;DHT22;11327;52.334;9.506;2023-05-10T01:18:53;14.00;99.90
22319;DHT22;11327;52.334;9.506;2023-05-10T01:22:44;13.90;99.90
22319;DHT22;11327;52.334;9.506;2023-05-10T01:33:35;13.90;99.90
22319;DHT22;11327;52.334;9.506;2023-05-10T01:37:10;13.90;99.90
22319;DHT22;11327;52.334;9.506;2023-05-10T01:44:17;13.90;99.90
22319;DHT22;11327;52.334;9.506;2023-05-10T01:47:46;13.80;99.90
22319;DHT22;11327;52.334;9.506;2023-05-10T01:51:07;13.80;99.90
22319;DHT22;11327;52.334;9.506;2023-05-10T01:54:30;13.80;99.90
22319;DHT22;11327;52.334;9.506;2023-05-10T01:57:57;13.80;99.90
22319;DHT22;11327;52.334;9.506;2023-05-10T02:01:16;13.80;99.90
22319;DHT22;11327;52.334;9.506;2023-05-10T02:04:39;13.80;99.90
22319;DHT22;11327;52.334;9.506;2023-05-10T02:08:03;13.80;99.90
22319;DHT22;11327;52.334;9.506;2023-05-10T02:11:27;13.80;99.90
22319;DHT22;11327;52.334;9.506;2023-05-10T02:14:50;13.80;99.90
22319;DHT22;11327;52.334;9.506;2023-05-10T02:18:13;13.80;99.90
22319;DHT22;11327;52.334;9.506;2023-05-10T02:21:35;13.80;99.90
22319;DHT22;11327;52.334;9.506;2023-05-10T02:24:57;13.80;99.90
22319;DHT22;11327;52.334;9.506;2023-05-10T02:28:19;13.80;99.90
22319;DHT22;11327;52.334;9.506;2023-05-10T02:31:41;13.70;99.90
22319;DHT22;11327;52.334;9.506;2023-05-10T02:35:04;13.60;99.90
22319;DHT22;11327;52.334;9.506;2023-05-10T02:38:26;13.70;99.90
22319;DHT22;11327;52.334;9.506;2023-05-10T02:41:49;13.60;99.90
22319;DHT22;11327;52.334;9.506;2023-05-10T02:45:13;13.60;99.90
22319;DHT22;11327;52.334;9.506;2023-05-10T02:48:34;13.60;99.90
22319;DHT22;11327;52.334;9.506;2023-05-10T02:51:59;13.50;99.90
22319;DHT22;11327;52.334;9.506;2023-05-10T02:55:22;13.50;99.90
22319;DHT22;11327;52.334;9.506;2023-05-10T02:58:44;13.50;99.90
22319;DHT22;11327;52.334;9.506;2023-05-10T03:02:05;13.40;99.90
22319;DHT22;11327;52.334;9.506;2023-05-10T03:05:26;13.40;99.90
22319;DHT22;11327;52.334;9.506;2023-05-10T03:08:47;13.30;99.90
22319;DHT22;11327;52.334;9.506;2023-05-10T03:12:33;13.40;99.90
22319;DHT22;11327;52.334;9.506;2023-05-10T03:16:08;13.40;99.90
22319;DHT22;11327;52.334;9.506;2023-05-10T03:19:34;13.30;99.90
22319;DHT22;11327;52.334;9.506;2023-05-10T03:26:26;13.30;99.90
22319;DHT22;11327;52.334;9.506;2023-05-10T03:29:48;13.30;99.90
22319;DHT22;11327;52.334;9.506;2023-05-10T03:33:09;13.20;99.90
22319;DHT22;11327;52.334;9.506;2023-05-10T03:36:31;13.30;99.90
22319;DHT22;11327;52.334;9.506;2023-05-10T03:39:52;13.30;99.90
22319;DHT22;11327;52.334;9.506;2023-05-10T03:43:12;13.20;99.90
22319;DHT22;11327;52.334;9.506;2023-05-10T03:46:33;13.30;99.90
22319;DHT22;11327;52.334;9.506;2023-05-10T03:49:54;13.40;99.90
22319;DHT22;11327;52.334;9.506;2023-05-10T03:53:15;13.40;99.90
22319;DHT22;11327;52.334;9.506;2023-05-10T03:56:36;13.40;99.90
22319;DHT22;11327;52.334;9.506;2023-05-10T03:59:56;13.40;99.90
22319;DHT22;11327;52.334;9.506;2023-05-10T04:03:17;13.40;99.90
22319;DHT22;11327;52.334;9.506;2023-05-10T04:06:38;13.30;99.90
22319;DHT22;11327;52.334;9.506;2023-05-10T04:09:59;13.30;99.90
22319;DHT22;11327;52.334;9.506;2023-05-10T04:13:20;13.40;99.90
22319;DHT22;11327;52.334;9.506;2023-05-10T04:16:41;13.40;99.90
22319;DHT22;11327;52.334;9.506;2023-05-10T04:20:02;13.40;99.90
22319;DHT22;11327;52.334;9.506;2023-05-10T04:23:24;13.40;99.90
22319;DHT22;11327;52.334;9.506;2023-05-10T04:26:45;13.30;99.90
22319;DHT22;11327;52.334;9.506;2023-05-10T04:30:07;13.30;99.90
22319;DHT22;11327;52.334;9.506;2023-05-10T04:33:28;13.40;99.90
22319;DHT22;11327;52.334;9.506;2023-05-10T04:36:49;13.40;99.90
22319;DHT22;11327;52.334;9.506;2023-05-10T04:40:10;13.40;99.90
22319;DHT22;11327;52.334;9.506;2023-05-10T04:43:30;13.40;99.90
22319;DHT22;11327;52.334;9.506;2023-05-10T04:46:51;13.40;99.90
22319;DHT22;11327;52.334;9.506;2023-05-10T04:50:12;13.40;99.90
22319;DHT22;11327;52.334;9.506;2023-05-10T04:53:33;13.50;99.90
22319;DHT22;11327;52.334;9.506;2023-05-10T04:56:54;13.30;99.90
22319;DHT22;11327;52.334;9.506;2023-05-10T05:00:15;13.40;99.90
22319;DHT22;11327;52.334;9.506;2023-05-10T05:03:36;13.40;99.90
22319;DHT22;11327;52.334;9.506;2023-05-10T05:06:57;13.30;99.90
22319;DHT22;11327;52.334;9.506;2023-05-10T05:10:18;13.20;99.90
22319;DHT22;11327;52.334;9.506;2023-05-10T05:13:39;13.10;99.90
22319;DHT22;11327;52.334;9.506;2023-05-10T05:16:59;13.00;99.90
22319;DHT22;11327;52.334;9.506;2023-05-10T05:20:20;13.00;99.90
22319;DHT22;11327;52.334;9.506;2023-05-10T05:23:43;13.00;99.90
22319;DHT22;11327;52.334;9.506;2023-05-10T05:27:04;12.90;99.90
22319;DHT22;11327;52.334;9.506;2023-05-10T05:30:25;12.90;99.90
22319;DHT22;11327;52.334;9.506;2023-05-10T05:33:45;13.00;99.90
22319;DHT22;11327;52.334;9.506;2023-05-10T05:37:06;13.00;99.90
22319;DHT22;11327;52.334;9.506;2023-05-10T05:40:27;13.00;99.90
22319;DHT22;11327;52.334;9.506;2023-05-10T05:43:48;13.00;99.90
22319;DHT22;11327;52.334;9.506;2023-05-10T05:47:09;13.00;99.90
22319;DHT22;11327;52.334;9.506;2023-05-10T05:50:29;13.00;99.90
22319;DHT22;11327;52.334;9.506;2023-05-10T05:53:50;13.00;99.90
22319;DHT22;11327;52.334;9.506;2023-05-10T05:57:11;13.00;99.90
22319;DHT22;11327;52.334;9.506;2023-05-10T06:00:31;13.00;99.90
22319;DHT22;11327;52.334;9.506;2023-05-10T06:03:52;13.00;99.90
22319;DHT22;11327;52.334;9.506;2023-05-10T06:07:13;13.00;99.90
22319;DHT22;11327;52.334;9.506;2023-05-10T06:10:34;13.10;99.90
22319;DHT22;11327;52.334;9.506;2023-05-10T06:13:54;13.10;99.90
22319;DHT22;11327;52.334;9.506;2023-05-10T06:17:15;13.10;99.90
22319;DHT22;11327;52.334;9.506;2023-05-10T06:20:36;13.20;99.90
22319;DHT22;11327;52.334;9.506;2023-05-10T06:23:57;13.20;99.90
22319;DHT22;11327;52.334;9.506;2023-05-10T06:27:18;13.20;99.90
22319;DHT22;11327;52.334;9.506;2023-05-10T06:30:38;13.20;99.90
22319;DHT22;11327;52.334;9.506;2023-05-10T06:33:59;13.30;99.90
22319;DHT22;11327;52.334;9.506;2023-05-10T06:37:20;13.30;99.90
22319;DHT22;11327;52.334;9.506;2023-05-10T06:40:41;13.40;99.90
22319;DHT22;11327;52.334;9.506;2023-05-10T06:44:02;13.40;99.90
22319;DHT22;11327;52.334;9.506;2023-05-10T06:47:24;13.50;99.90
22319;DHT22;11327;52.334;9.506;2023-05-10T06:50:44;13.50;99.90
22319;DHT22;11327;52.334;9.506;2023-05-10T06:54:05;13.60;99.90
22319;DHT22;11327;52.334;9.506;2023-05-10T06:57:26;13.60;99.90
22319;DHT22;11327;52.334;9.506;2023-05-10T07:00:46;13.50;99.90
22319;DHT22;11327;52.334;9.506;2023-05-10T07:04:08;13.60;99.90
22319;DHT22;11327;52.334;9.506;2023-05-10T07:07:28;13.60;99.90
22319;DHT22;11327;52.334;9.506;2023-05-10T07:10:49;13.70;99.90
22319;DHT22;11327;52.334;9.506;2023-05-10T07:14:10;13.70;99.90
22319;DHT22;11327;52.334;9.506;2023-05-10T07:17:30;13.70;99.90
22319;DHT22;11327;52.334;9.506;2023-05-10T07:20:51;13.70;99.90
22319;DHT22;11327;52.334;9.506;2023-05-10T07:24:12;13.70;99.90
22319;DHT22;11327;52.334;9.506;2023-05-10T07:27:33;13.60;99.90
22319;DHT22;11327;52.334;9.506;2023-05-10T07:30:54;13.70;99.90
22319;DHT22;11327;52.334;9.506;2023-05-10T07:34:14;13.60;99.90
22319;DHT22;11327;52.334;9.506;2023-05-10T07:37:35;13.70;99.90
22319;DHT22;11327;52.334;9.506;2023-05-10T07:40:56;13.70;99.90
22319;DHT22;11327;52.334;9.506;2023-05-10T07:44:17;13.70;99.90
22319;DHT22;11327;52.334;9.506;2023-05-10T07:47:41;13.70;99.90
22319;DHT22;11327;52.334;9.506;2023-05-10T07:51:01;13.70;99.90
22319;DHT22;11327;52.334;9.506;2023-05-10T07:54:22;13.70;99.90
22319;DHT22;11327;52.334;9.506;2023-05-10T07:57:43;13.80;99.90
22319;DHT22;11327;52.334;9.506;2023-05-10T08:01:04;13.80;99.90
22319;DHT22;11327;52.334;9.506;2023-05-10T08:04:25;13.90;99.90
22319;DHT22;11327;52.334;9.506;2023-05-10T08:07:46;13.90;99.90
22319;DHT22;11327;52.334;9.506;2023-05-10T08:11:07;13.90;99.90
22319;DHT22;11327;52.334;9.506;2023-05-10T08:14:28;13.80;99.90
22319;DHT22;11327;52.334;9.506;2023-05-10T08:17:49;13.90;99.90
22319;DHT22;11327;52.334;9.506;2023-05-10T08:21:10;13.80;99.90
22319;DHT22;11327;52.334;9.506;2023-05-10T08:24:31;14.00;99.90
22319;DHT22;11327;52.334;9.506;2023-05-10T08:27:52;13.90;99.90
22319;DHT22;11327;52.334;9.506;2023-05-10T08:31:13;13.90;99.90
22319;DHT22;11327;52.334;9.506;2023-05-10T08:34:34;13.80;99.90
22319;DHT22;11327;52.334;9.506;2023-05-10T08:37:55;13.80;99.90
22319;DHT22;11327;52.334;9.506;2023-05-10T08:41:16;13.90;99.90
22319;DHT22;11327;52.334;9.506;2023-05-10T08:44:37;13.80;99.90
22319;DHT22;11327;52.334;9.506;2023-05-10T08:48:02;13.80;99.90
22319;DHT22;11327;52.334;9.506;2023-05-10T08:51:24;13.90;99.90
22319;DHT22;11327;52.334;9.506;2023-05-10T08:54:48;13.90;99.90
22319;DHT22;11327;52.334;9.506;2023-05-10T08:58:09;14.00;99.90
22319;DHT22;11327;52.334;9.506;2023-05-10T09:01:31;14.00;99.90
22319;DHT22;11327;52.334;9.506;2023-05-10T09:04:53;14.10;99.90
22319;DHT22;11327;52.334;9.506;2023-05-10T09:08:13;14.10;99.90
22319;DHT22;11327;52.334;9.506;2023-05-10T09:11:36;14.10;99.90
22319;DHT22;11327;52.334;9.506;2023-05-10T09:14:59;14.20;99.90
22319;DHT22;11327;52.334;9.506;2023-05-10T09:18:20;14.20;99.90
22319;DHT22;11327;52.334;9.506;2023-05-10T09:21:41;14.40;99.90
22319;DHT22;11327;52.334;9.506;2023-05-10T09:25:07;14.40;99.90
22319;DHT22;11327;52.334;9.506;2023-05-10T09:28:33;14.40;99.90
22319;DHT22;11327;52.334;9.506;2023-05-10T09:31:54;14.40;99.90
22319;DHT22;11327;52.334;9.506;2023-05-10T09:35:17;14.40;99.90
22319;DHT22;11327;52.334;9.506;2023-05-10T09:38:49;14.50;99.90
22319;DHT22;11327;52.334;9.506;2023-05-10T09:42:12;14.50;99.90
22319;DHT22;11327;52.334;9.506;2023-05-10T09:45:35;14.60;99.90
22319;DHT22;11327;52.334;9.506;2023-05-10T09:48:56;14.70;99.90
22319;DHT22;11327;52.334;9.506;2023-05-10T09:52:16;14.80;99.90
22319;DHT22;11327;52.334;9.506;2023-05-10T09:55:42;14.90;99.90
22319;DHT22;11327;52.334;9.506;2023-05-10T09:59:09;14.90;99.90
22319;DHT22;11327;52.334;9.506;2023-05-10T10:02:31;15.00;99.90
22319;DHT22;11327;52.334;9.506;2023-05-10T10:05:52;15.10;99.90
22319;DHT22;11327;52.334;9.506;2023-05-10T10:09:13;15.10;99.90
22319;DHT22;11327;52.334;9.506;2023-05-10T10:12:34;15.10;99.90
22319;DHT22;11327;52.334;9.506;2023-05-10T10:15:56;15.20;99.90
22319;DHT22;11327;52.334;9.506;2023-05-10T10:19:18;15.40;99.90
22319;DHT22;11327;52.334;9.506;2023-05-10T10:22:39;15.30;99.90
22319;DHT22;11327;52.334;9.506;2023-05-10T10:26:02;15.40;99.90
22319;DHT22;11327;52.334;9.506;2023-05-10T10:29:36;15.50;99.90
22319;DHT22;11327;52.334;9.506;2023-05-10T10:36:28;15.60;99.90
22319;DHT22;11327;52.334;9.506;2023-05-10T10:39:49;15.70;99.90
22319;DHT22;11327;52.334;9.506;2023-05-10T10:43:25;15.70;99.90
22319;DHT22;11327;52.334;9.506;2023-05-10T10:50:45;15.60;99.90
22319;DHT22;11327;52.334;9.506;2023-05-10T10:54:10;15.70;99.90
22319;DHT22;11327;52.334;9.506;2023-05-10T10:57:43;15.70;99.90
22319;DHT22;11327;52.334;9.506;2023-05-10T11:01:14;15.80;99.90
22319;DHT22;11327;52.334;9.506;2023-05-10T11:04:42;15.90;99.90
22319;DHT22;11327;52.334;9.506;2023-05-10T11:11:31;16.20;99.90
22319;DHT22;11327;52.334;9.506;2023-05-10T11:14:56;16.20;99.90
22319;DHT22;11327;52.334;9.506;2023-05-10T11:18:21;16.30;99.90
22319;DHT22;11327;52.334;9.506;2023-05-10T11:25:10;16.90;99.90
22319;DHT22;11327;52.334;9.506;2023-05-10T11:28:31;17.10;99.90
22319;DHT22;11327;52.334;9.506;2023-05-10T11:31:52;17.40;99.90
22319;DHT22;11327;52.334;9.506;2023-05-10T11:35:15;17.60;99.90
22319;DHT22;11327;52.334;9.506;2023-05-10T11:38:36;17.60;99.90
22319;DHT22;11327;52.334;9.506;2023-05-10T11:41:57;17.50;99.90
22319;DHT22;11327;52.334;9.506;2023-05-10T11:45:18;17.40;99.90
22319;DHT22;11327;52.334;9.506;2023-05-10T11:48:40;17.30;99.90
22319;DHT22;11327;52.334;9.506;2023-05-10T11:52:06;17.20;99.90
22319;DHT22;11327;52.334;9.506;2023-05-10T11:55:27;17.20;99.90
22319;DHT22;11327;52.334;9.506;2023-05-10T11:58:57;17.30;99.90
22319;DHT22;11327;52.334;9.506;2023-05-10T12:02:18;17.30;99.90
22319;DHT22;11327;52.334;9.506;2023-05-10T12:05:39;17.40;99.90
22319;DHT22;11327;52.334;9.506;2023-05-10T12:09:07;17.50;99.90
22319;DHT22;11327;52.334;9.506;2023-05-10T12:12:44;17.40;99.90
22319;DHT22;11327;52.334;9.506;2023-05-10T12:16:24;17.30;99.90
22319;DHT22;11327;52.334;9.506;2023-05-10T12:19:45;17.30;99.90
22319;DHT22;11327;52.334;9.506;2023-05-10T12:23:08;17.40;99.90
22319;DHT22;11327;52.334;9.506;2023-05-10T12:26:30;17.50;99.90
22319;DHT22;11327;52.334;9.506;2023-05-10T12:29:51;17.40;99.90
22319;DHT22;11327;52.334;9.506;2023-05-10T12:33:13;17.40;99.90
22319;DHT22;11327;52.334;9.506;2023-05-10T12:36:38;17.40;99.90
22319;DHT22;11327;52.334;9.506;2023-05-10T12:39:59;17.40;99.90
22319;DHT22;11327;52.334;9.506;2023-05-10T12:43:19;17.40;99.90
22319;DHT22;11327;52.334;9.506;2023-05-10T12:46:40;17.50;99.90
22319;DHT22;11327;52.334;9.506;2023-05-10T12:50:01;17.60;99.90
22319;DHT22;11327;52.334;9.506;2023-05-10T12:53:22;17.60;99.90
22319;DHT22;11327;52.334;9.506;2023-05-10T12:56:43;17.80;99.90
22319;DHT22;11327;52.334;9.506;2023-05-10T13:00:05;18.10;99.90
22319;DHT22;11327;52.334;9.506;2023-05-10T13:03:26;18.20;99.90
22319;DHT22;11327;52.334;9.506;2023-05-10T13:06:46;18.20;99.90
22319;DHT22;11327;52.334;9.506;2023-05-10T13:10:07;18.20;99.90
22319;DHT22;11327;52.334;9.506;2023-05-10T13:13:28;18.30;99.90
22319;DHT22;11327;52.334;9.506;2023-05-10T13:16:49;18.40;99.90
22319;DHT22;11327;52.334;9.506;2023-05-10T13:20:10;18.50;99.90
22319;DHT22;11327;52.334;9.506;2023-05-10T13:23:31;18.50;99.90
22319;DHT22;11327;52.334;9.506;2023-05-10T13:26:52;18.50;99.90
22319;DHT22;11327;52.334;9.506;2023-05-10T13:30:13;18.40;99.90
22319;DHT22;11327;52.334;9.506;2023-05-10T13:33:33;18.40;99.90
22319;DHT22;11327;52.334;9.506;2023-05-10T13:36:54;18.40;99.90
22319;DHT22;11327;52.334;9.506;2023-05-10T13:40:16;18.50;99.90
22319;DHT22;11327;52.334;9.506;2023-05-10T13:43:37;18.50;99.90
22319;DHT22;11327;52.334;9.506;2023-05-10T13:46:57;18.60;99.90
22319;DHT22;11327;52.334;9.506;2023-05-10T13:50:18;18.70;99.90
22319;DHT22;11327;52.334;9.506;2023-05-10T13:53:39;18.80;99.90
22319;DHT22;11327;52.334;9.506;2023-05-10T13:57:00;18.90;99.90
22319;DHT22;11327;52.334;9.506;2023-05-10T14:00:21;18.80;99.90
22319;DHT22;11327;52.334;9.506;2023-05-10T14:03:41;18.70;99.90
22319;DHT22;11327;52.334;9.506;2023-05-10T14:07:02;18.60;99.90
22319;DHT22;11327;52.334;9.506;2023-05-10T14:10:23;18.50;99.90
22319;DHT22;11327;52.334;9.506;2023-05-10T14:13:43;18.90;99.90
22319;DHT22;11327;52.334;9.506;2023-05-10T14:17:04;19.20;99.90
22319;DHT22;11327;52.334;9.506;2023-05-10T14:20:25;19.60;99.90
22319;DHT22;11327;52.334;9.506;2023-05-10T14:23:46;19.70;99.90
22319;DHT22;11327;52.334;9.506;2023-05-10T14:27:07;19.70;99.90
22319;DHT22;11327;52.334;9.506;2023-05-10T14:30:27;19.50;99.90
22319;DHT22;11327;52.334;9.506;2023-05-10T14:33:48;19.40;99.90
22319;DHT22;11327;52.334;9.506;2023-05-10T14:37:10;19.20;99.90
22319;DHT22;11327;52.334;9.506;2023-05-10T14:40:31;19.10;99.90
22319;DHT22;11327;52.334;9.506;2023-05-10T14:43:52;18.90;99.90
22319;DHT22;11327;52.334;9.506;2023-05-10T14:47:13;18.70;99.90
22319;DHT22;11327;52.334;9.506;2023-05-10T14:50:34;18.70;99.90
22319;DHT22;11327;52.334;9.506;2023-05-10T14:53:55;18.30;99.90
22319;DHT22;11327;52.334;9.506;2023-05-10T14:57:16;18.20;99.90
22319;DHT22;11327;52.334;9.506;2023-05-10T15:00:37;18.10;99.90
22319;DHT22;11327;52.334;9.506;2023-05-10T15:03:58;18.10;99.90
22319;DHT22;11327;52.334;9.506;2023-05-10T15:07:18;18.00;99.90
22319;DHT22;11327;52.334;9.506;2023-05-10T15:10:39;17.90;99.90
22319;DHT22;11327;52.334;9.506;2023-05-10T15:14:00;17.90;99.90
22319;DHT22;11327;52.334;9.506;2023-05-10T15:17:22;17.90;99.90
22319;DHT22;11327;52.334;9.506;2023-05-10T15:20:42;17.80;99.90
22319;DHT22;11327;52.334;9.506;2023-05-10T15:24:08;17.90;99.90
22319;DHT22;11327;52.334;9.506;2023-05-10T15:27:26;17.70;99.90
22319;DHT22;11327;52.334;9.506;2023-05-10T15:30:47;17.70;99.90
22319;DHT22;11327;52.334;9.506;2023-05-10T15:34:07;17.70;99.90
22319;DHT22;11327;52.334;9.506;2023-05-10T15:37:28;17.60;99.90
22319;DHT22;11327;52.334;9.506;2023-05-10T15:40:49;17.80;99.90
22319;DHT22;11327;52.334;9.506;2023-05-10T15:44:09;17.80;99.90
22319;DHT22;11327;52.334;9.506;2023-05-10T15:47:31;17.90;99.90
22319;DHT22;11327;52.334;9.506;2023-05-10T15:50:53;17.80;99.90
22319;DHT22;11327;52.334;9.506;2023-05-10T15:54:13;17.80;99.90
22319;DHT22;11327;52.334;9.506;2023-05-10T15:57:34;17.60;99.90
22319;DHT22;11327;52.334;9.506;2023-05-10T16:00:55;17.50;99.90
22319;DHT22;11327;52.334;9.506;2023-05-10T16:04:17;17.40;99.90
22319;DHT22;11327;52.334;9.506;2023-05-10T16:07:37;17.50;99.90
22319;DHT22;11327;52.334;9.506;2023-05-10T16:10:59;17.40;99.90
22319;DHT22;11327;52.334;9.506;2023-05-10T16:14:20;17.30;99.90
22319;DHT22;11327;52.334;9.506;2023-05-10T16:17:42;17.30;99.90
22319;DHT22;11327;52.334;9.506;2023-05-10T16:21:03;17.20;99.90
22319;DHT22;11327;52.334;9.506;2023-05-10T16:24:24;17.20;99.90
22319;DHT22;11327;52.334;9.506;2023-05-10T16:27:45;17.20;99.90
22319;DHT22;11327;52.334;9.506;2023-05-10T16:31:06;17.20;99.90
22319;DHT22;11327;52.334;9.506;2023-05-10T16:34:27;17.10;99.90
22319;DHT22;11327;52.334;9.506;2023-05-10T16:37:48;16.90;99.90
22319;DHT22;11327;52.334;9.506;2023-05-10T16:41:09;16.60;99.90
22319;DHT22;11327;52.334;9.506;2023-05-10T16:44:30;16.40;99.90
22319;DHT22;11327;52.334;9.506;2023-05-10T16:47:51;16.40;99.90
22319;DHT22;11327;52.334;9.506;2023-05-10T16:51:13;16.10;99.90
22319;DHT22;11327;52.334;9.506;2023-05-10T16:54:33;16.00;99.90
22319;DHT22;11327;52.334;9.506;2023-05-10T16:57:54;15.90;99.90
22319;DHT22;11327;52.334;9.506;2023-05-10T17:01:19;15.80;99.90
22319;DHT22;11327;52.334;9.506;2023-05-10T17:04:41;15.80;99.90
22319;DHT22;11327;52.334;9.506;2023-05-10T17:08:02;15.70;99.90
22319;DHT22;11327;52.334;9.506;2023-05-10T17:11:23;15.60;99.90
22319;DHT22;11327;52.334;9.506;2023-05-10T17:14:43;15.60;99.90
22319;DHT22;11327;52.334;9.506;2023-05-10T17:18:04;15.50;99.90
22319;DHT22;11327;52.334;9.506;2023-05-10T17:21:26;15.40;99.90
22319;DHT22;11327;52.334;9.506;2023-05-10T17:24:47;15.30;99.90
22319;DHT22;11327;52.334;9.506;2023-05-10T17:28:07;15.30;99.90
22319;DHT22;11327;52.334;9.506;2023-05-10T17:31:28;15.20;99.90
22319;DHT22;11327;52.334;9.506;2023-05-10T17:34:49;15.20;99.90
22319;DHT22;11327;52.334;9.506;2023-05-10T17:38:10;15.10;99.90
22319;DHT22;11327;52.334;9.506;2023-05-10T17:41:30;15.10;99.90
22319;DHT22;11327;52.334;9.506;2023-05-10T17:44:51;15.10;99.90
22319;DHT22;11327;52.334;9.506;2023-05-10T17:48:12;15.10;99.90
22319;DHT22;11327;52.334;9.506;2023-05-10T17:51:33;15.10;99.90
22319;DHT22;11327;52.334;9.506;2023-05-10T17:54:53;15.10;99.90
22319;DHT22;11327;52.334;9.506;2023-05-10T17:58:14;15.10;99.90
22319;DHT22;11327;52.334;9.506;2023-05-10T18:01:35;15.20;99.90
22319;DHT22;11327;52.334;9.506;2023-05-10T18:04:55;15.20;99.90
22319;DHT22;11327;52.334;9.506;2023-05-10T18:08:17;15.10;99.90
22319;DHT22;11327;52.334;9.506;2023-05-10T18:11:39;15.20;99.90
22319;DHT22;11327;52.334;9.506;2023-05-10T18:15:00;15.10;99.90
22319;DHT22;11327;52.334;9.506;2023-05-10T18:18:21;15.20;99.90
22319;DHT22;11327;52.334;9.506;2023-05-10T18:21:42;15.20;99.90
22319;DHT22;11327;52.334;9.506;2023-05-10T18:25:03;15.20;99.90
22319;DHT22;11327;52.334;9.506;2023-05-10T18:28:24;15.20;99.90
22319;DHT22;11327;52.334;9.506;2023-05-10T18:31:45;15.20;99.90
22319;DHT22;11327;52.334;9.506;2023-05-10T18:35:06;15.20;99.90
22319;DHT22;11327;52.334;9.506;2023-05-10T18:38:27;15.20;99.90
22319;DHT22;11327;52.334;9.506;2023-05-10T18:41:48;15.20;99.90
22319;DHT22;11327;52.334;9.506;2023-05-10T18:45:09;15.20;99.90
22319;DHT22;11327;52.334;9.506;2023-05-10T18:48:31;15.10;99.90
22319;DHT22;11327;52.334;9.506;2023-05-10T18:51:51;15.10;99.90
22319;DHT22;11327;52.334;9.506;2023-05-10T18:55:13;15.10;99.90
22319;DHT22;11327;52.334;9.506;2023-05-10T18:58:33;15.00;99.90
22319;DHT22;11327;52.334;9.506;2023-05-10T19:01:55;15.00;99.90
22319;DHT22;11327;52.334;9.506;2023-05-10T19:05:16;15.00;99.90
22319;DHT22;11327;52.334;9.506;2023-05-10T19:08:36;15.00;99.90
22319;DHT22;11327;52.334;9.506;2023-05-10T19:11:57;15.00;99.90
22319;DHT22;11327;52.334;9.506;2023-05-10T19:15:18;15.00;99.90
22319;DHT22;11327;52.334;9.506;2023-05-10T19:18:38;14.90;99.90
22319;DHT22;11327;52.334;9.506;2023-05-10T19:21:59;14.90;99.90
22319;DHT22;11327;52.334;9.506;2023-05-10T19:25:20;14.90;99.90
22319;DHT22;11327;52.334;9.506;2023-05-10T19:28:41;15.00;99.90
22319;DHT22;11327;52.334;9.506;2023-05-10T19:32:01;14.90;99.90
22319;DHT22;11327;52.334;9.506;2023-05-10T19:35:22;14.90;99.90
22319;DHT22;11327;52.334;9.506;2023-05-10T19:38:43;14.90;99.90
22319;DHT22;11327;52.334;9.506;2023-05-10T19:42:04;14.90;99.90
22319;DHT22;11327;52.334;9.506;2023-05-10T19:45:25;14.90;99.90
22319;DHT22;11327;52.334;9.506;2023-05-10T19:48:46;14.90;99.90
22319;DHT22;11327;52.334;9.506;2023-05-10T19:52:06;14.90;99.90
22319;DHT22;11327;52.334;9.506;2023-05-10T19:55:30;14.90;99.90
22319;DHT22;11327;52.334;9.506;2023-05-10T19:58:51;14.80;99.90
22319;DHT22;11327;52.334;9.506;2023-05-10T20:02:12;14.80;99.90
22319;DHT22;11327;52.334;9.506;2023-05-10T20:05:32;14.80;99.90
22319;DHT22;11327;52.334;9.506;2023-05-10T20:08:53;14.80;99.90
22319;DHT22;11327;52.334;9.506;2023-05-10T20:12:14;14.70;99.90
22319;DHT22;11327;52.334;9.506;2023-05-10T20:15:34;14.70;99.90
22319;DHT22;11327;52.334;9.506;2023-05-10T20:18:55;14.70;99.90
22319;DHT22;11327;52.334;9.506;2023-05-10T20:22:16;14.70;99.90
22319;DHT22;11327;52.334;9.506;2023-05-10T20:25:37;14.70;99.90
22319;DHT22;11327;52.334;9.506;2023-05-10T20:28:57;14.60;99.90
22319;DHT22;11327;52.334;9.506;2023-05-10T20:32:18;14.60;99.90
22319;DHT22;11327;52.334;9.506;2023-05-10T20:35:39;14.50;99.90
22319;DHT22;11327;52.334;9.506;2023-05-10T20:38:59;14.50;99.90
22319;DHT22;11327;52.334;9.506;2023-05-10T20:42:20;14.60;99.90
22319;DHT22;11327;52.334;9.506;2023-05-10T20:45:41;14.50;99.90
22319;DHT22;11327;52.334;9.506;2023-05-10T20:49:02;14.50;99.90
22319;DHT22;11327;52.334;9.506;2023-05-10T20:52:24;14.50;99.90
22319;DHT22;11327;52.334;9.506;2023-05-10T20:55:44;14.50;99.90
22319;DHT22;11327;52.334;9.506;2023-05-10T20:59:05;14.50;99.90
22319;DHT22;11327;52.334;9.506;2023-05-10T21:02:26;14.50;99.90
22319;DHT22;11327;52.334;9.506;2023-05-10T21:05:47;14.50;99.90
22319;DHT22;11327;52.334;9.506;2023-05-10T21:09:07;14.50;99.90
22319;DHT22;11327;52.334;9.506;2023-05-10T21:12:28;14.40;99.90
22319;DHT22;11327;52.334;9.506;2023-05-10T21:15:49;14.50;99.90
22319;DHT22;11327;52.334;9.506;2023-05-10T21:19:10;14.50;99.90
22319;DHT22;11327;52.334;9.506;2023-05-10T21:22:31;14.40;99.90
22319;DHT22;11327;52.334;9.506;2023-05-10T21:25:52;14.40;99.90
22319;DHT22;11327;52.334;9.506;2023-05-10T21:29:13;14.40;99.90
22319;DHT22;11327;52.334;9.506;2023-05-10T21:32:33;14.40;99.90
22319;DHT22;11327;52.334;9.506;2023-05-10T21:35:55;14.40;99.90
22319;DHT22;11327;52.334;9.506;2023-05-10T21:39:16;14.40;99.90
22319;DHT22;11327;52.334;9.506;2023-05-10T21:42:37;14.40;99.90